Time;durP1;ratioP1;P1;durP2;ratioP2;P2;SDS_P1;SDS_P2;PMS_P1;PMS_P2;Temp;Humidity;BMP_temperature;BMP_pressure;BME280_temperature;BME280_humidity;BME280_pressure;Samples;Min_cycle;Max_cycle;Signal;HPM_P1;HPM_P2
2021/03/01 00:01:27;;;;;;;;;;;22.50;32.50;;;;;;1569110;74;832;-69
2021/03/01 00:03:28;;;;;;;;;;;22.50;32.50;;;;;;1569780;74;824;-68
2021/03/01 00:05:30;;;;;;;;;;;22.40;32.50;;;;;;1572560;74;1201;-69
2021/03/01 00:07:32;;;;;;;;;;;22.40;32.60;;;;;;1569224;74;687;-68
2021/03/01 00:09:34;;;;;;;;;;;22.20;32.60;;;;;;1569952;74;745;-69
2021/03/01 00:11:36;;;;;;;;;;;22.30;32.90;;;;;;1570805;74;815;-67
2021/03/01 00:13:38;;;;;;;;;;;22.30;32.80;;;;;;1574461;74;821;-68
2021/03/01 00:15:40;;;;;;;;;;;22.30;32.80;;;;;;1571608;74;1170;-67
2021/03/01 00:17:42;;;;;;;;;;;22.20;32.80;;;;;;1571477;74;793;-68
2021/03/01 00:19:44;;;;;;;;;;;22.20;32.80;;;;;;1572221;74;1949;-68
2021/03/01 00:21:45;;;;;;;;;;;22.20;32.80;;;;;;1572094;74;804;-68
2021/03/01 00:23:47;;;;;;;;;;;22.20;32.80;;;;;;1571349;74;704;-67
2021/03/01 00:25:49;;;;;;;;;;;22.20;32.90;;;;;;1573080;74;1241;-67
2021/03/01 00:27:51;;;;;;;;;;;22.20;33.00;;;;;;1571222;74;833;-69
2021/03/01 00:29:53;;;;;;;;;;;22.10;33.10;;;;;;1573320;74;766;-69
2021/03/01 00:31:55;;;;;;;;;;;22.10;33.10;;;;;;1572554;74;827;-68
2021/03/01 00:33:57;;;;;;;;;;;22.20;33.10;;;;;;1572676;74;713;-68
2021/03/01 00:35:59;;;;;;;;;;;22.10;33.00;;;;;;1573211;74;1116;-68
2021/03/01 00:38:00;;;;;;;;;;;22.20;32.90;;;;;;1570226;74;791;-67
2021/03/01 00:40:03;;;;;;;;;;;22.10;32.90;;;;;;1570782;74;1924;-69
2021/03/01 00:42:05;;;;;;;;;;;22.20;32.90;;;;;;1569141;74;712;-68
2021/03/01 00:44:07;;;;;;;;;;;22.10;32.90;;;;;;1573467;74;815;-69
2021/03/01 00:46:09;;;;;;;;;;;22.20;32.80;;;;;;1570258;74;1140;-68
2021/03/01 00:48:11;;;;;;;;;;;22.30;32.90;;;;;;1570505;74;777;-69
2021/03/01 00:50:13;;;;;;;;;;;22.30;32.70;;;;;;1573319;74;766;-70
2021/03/01 00:52:15;;;;;;;;;;;22.30;32.70;;;;;;1576247;74;947;-69
2021/03/01 00:54:17;;;;;;;;;;;22.30;32.70;;;;;;1569468;74;677;-69
2021/03/01 00:56:19;;;;;;;;;;;22.30;32.60;;;;;;1573512;74;1164;-68
2021/03/01 00:58:21;;;;;;;;;;;22.40;32.50;;;;;;1578035;74;1934;-69
2021/03/01 01:00:23;;;;;;;;;;;22.40;32.40;;;;;;1577736;74;823;-67
2021/03/01 01:02:25;;;;;;;;;;;22.40;32.40;;;;;;1576739;74;936;-66
2021/03/01 01:04:27;;;;;;;;;;;22.40;32.50;;;;;;1585456;74;820;-68
2021/03/01 01:06:29;;;;;;;;;;;22.30;32.50;;;;;;1582754;74;1187;-67
2021/03/01 01:08:31;;;;;;;;;;;22.30;32.50;;;;;;1586490;74;778;-68
2021/03/01 01:10:33;;;;;;;;;;;22.30;32.60;;;;;;1590322;74;709;-68
2021/03/01 01:12:35;;;;;;;;;;;22.30;32.60;;;;;;1586324;74;809;-68
2021/03/01 01:14:37;;;;;;;;;;;22.30;32.70;;;;;;1592387;74;734;-66
2021/03/01 01:16:39;;;;;;;;;;;22.30;32.70;;;;;;1585115;74;1101;-68
2021/03/01 01:18:41;;;;;;;;;;;22.30;32.70;;;;;;1585330;74;1933;-68
2021/03/01 01:20:43;;;;;;;;;;;22.30;32.70;;;;;;1582611;74;833;-69
2021/03/01 01:22:44;;;;;;;;;;;22.30;32.70;;;;;;1585021;74;758;-68
2021/03/01 01:24:46;;;;;;;;;;;22.30;32.70;;;;;;1582572;74;1166;-67
2021/03/01 01:26:48;;;;;;;;;;;22.30;32.80;;;;;;1583376;74;744;-67
2021/03/01 01:28:50;;;;;;;;;;;22.20;32.70;;;;;;1583853;74;779;-70
2021/03/01 01:30:52;;;;;;;;;;;22.20;32.80;;;;;;1583299;74;797;-70
2021/03/01 01:32:54;;;;;;;;;;;22.20;32.80;;;;;;1587084;74;769;-68
2021/03/01 01:34:56;;;;;;;;;;;22.20;32.90;;;;;;1584242;74;1162;-70
2021/03/01 01:36:57;;;;;;;;;;;22.20;32.90;;;;;;1586184;74;771;-69
2021/03/01 01:38:59;;;;;;;;;;;22.10;33.10;;;;;;1584042;74;1947;-68
2021/03/01 01:41:01;;;;;;;;;;;22.20;33.10;;;;;;1586318;74;788;-69
2021/03/01 01:43:03;;;;;;;;;;;22.10;33.10;;;;;;1585855;74;1367;-70
2021/03/01 01:45:09;;;;;;;;;;;22.20;33.10;;;;;;1581779;74;1130;-69
2021/03/01 01:47:11;;;;;;;;;;;22.10;33.00;;;;;;1580294;74;715;-69
2021/03/01 01:49:13;;;;;;;;;;;22.10;33.10;;;;;;1579159;74;673;-69
2021/03/01 01:51:15;;;;;;;;;;;22.10;33.10;;;;;;1584764;74;734;-69
2021/03/01 01:53:17;;;;;;;;;;;22.10;33.10;;;;;;1580978;74;768;-68
2021/03/01 01:55:18;;;;;;;;;;;22.10;33.20;;;;;;1570363;74;1159;-68
2021/03/01 01:57:20;;;;;;;;;;;22.10;33.20;;;;;;1580699;74;830;-69
2021/03/01 01:59:22;;;;;;;;;;;22.10;33.30;;;;;;1574277;74;1930;-67
2021/03/01 02:01:24;;;;;;;;;;;22.10;33.40;;;;;;1579943;74;717;-69
2021/03/01 02:03:30;;;;;;;;;;;22.10;33.20;;;;;;1581503;74;831;-69
2021/03/01 02:05:32;;;;;;;;;;;22.10;33.20;;;;;;1580767;74;1251;-68
2021/03/01 02:07:45;;;;;;;;;;;22.10;33.10;;;;;;1566802;74;708;-68
2021/03/01 02:10:00;;;;;;;;;;;22.20;33.00;;;;;;1579021;74;784;-68
2021/03/01 02:12:06;;;;;;;;;;;22.20;32.90;;;;;;1578783;74;777;-69
2021/03/01 02:14:12;;;;;;;;;;;22.30;33.00;;;;;;1576812;74;811;-69
2021/03/01 02:16:19;;;;;;;;;;;22.20;32.90;;;;;;1580144;74;1155;-69
2021/03/01 02:18:21;;;;;;;;;;;22.10;33.00;;;;;;1543294;75;744;-68
2021/03/01 02:20:23;;;;;;;;;;;22.20;33.10;;;;;;1579477;74;1914;-68
2021/03/01 02:22:24;;;;;;;;;;;22.20;33.10;;;;;;1584453;74;780;-68
2021/03/01 02:24:28;;;;;;;;;;;22.10;33.10;;;;;;1589815;74;782;-69
2021/03/01 02:26:32;;;;;;;;;;;22.10;33.20;;;;;;1571956;74;1894;-69
2021/03/01 02:28:34;;;;;;;;;;;22.10;33.20;;;;;;1576460;74;718;-69
2021/03/01 02:30:44;;;;;;;;;;;22.10;33.40;;;;;;1577312;74;718;-69
2021/03/01 02:32:45;;;;;;;;;;;22.00;33.30;;;;;;1562934;74;1050;-69
2021/03/01 02:34:47;;;;;;;;;;;22.10;33.30;;;;;;1579637;74;1122;-68
2021/03/01 02:36:56;;;;;;;;;;;22.10;33.30;;;;;;1574768;74;719;-65
2021/03/01 02:38:59;;;;;;;;;;;22.10;33.30;;;;;;1580944;74;1938;-68
2021/03/01 02:41:00;;;;;;;;;;;22.30;33.40;;;;;;1576330;74;750;-68
2021/03/01 02:43:02;;;;;;;;;;;22.20;33.20;;;;;;1586599;74;729;-67
2021/03/01 02:45:05;;;;;;;;;;;22.20;33.40;;;;;;1585466;74;1157;-67
2021/03/01 02:47:07;;;;;;;;;;;22.20;33.50;;;;;;1577821;74;759;-65
2021/03/01 02:49:08;;;;;;;;;;;22.20;33.30;;;;;;1581542;74;704;-68
2021/03/01 02:51:10;;;;;;;;;;;22.20;33.20;;;;;;1584015;74;799;-69
2021/03/01 02:53:13;;;;;;;;;;;22.30;33.30;;;;;;1577077;74;706;-68
2021/03/01 02:55:15;;;;;;;;;;;22.30;33.20;;;;;;1575732;74;1168;-68
2021/03/01 02:57:17;;;;;;;;;;;22.30;33.10;;;;;;1580744;74;719;-69
2021/03/01 02:59:19;;;;;;;;;;;22.40;33.10;;;;;;1580936;74;1934;-68
2021/03/01 03:01:21;;;;;;;;;;;22.40;33.00;;;;;;1578411;74;852;-67
2021/03/01 03:03:23;;;;;;;;;;;22.50;33.10;;;;;;1581488;74;730;-65
2021/03/01 03:05:25;;;;;;;;;;;22.40;33.00;;;;;;1577778;74;1211;-67
2021/03/01 03:07:27;;;;;;;;;;;22.30;33.00;;;;;;1577657;74;824;-67
2021/03/01 03:09:28;;;;;;;;;;;22.30;33.00;;;;;;1584047;74;746;-67
2021/03/01 03:11:30;;;;;;;;;;;22.30;32.90;;;;;;1582056;74;734;-67
2021/03/01 03:13:33;;;;;;;;;;;22.40;32.80;;;;;;1549880;75;755;-69
2021/03/01 03:15:36;;;;;;;;;;;22.40;32.80;;;;;;1548674;75;1140;-67
2021/03/01 03:17:38;;;;;;;;;;;22.40;33.10;;;;;;1533859;76;745;-68
2021/03/01 03:19:40;;;;;;;;;;;22.50;33.10;;;;;;1550980;75;1912;-69
2021/03/01 03:21:42;;;;;;;;;;;22.40;33.10;;;;;;1541494;75;719;-68
2021/03/01 03:23:44;;;;;;;;;;;22.30;33.20;;;;;;1553710;75;752;-68
2021/03/01 03:25:46;;;;;;;;;;;22.30;33.40;;;;;;1552590;75;1145;-68
2021/03/01 03:27:47;;;;;;;;;;;22.40;33.40;;;;;;1551408;75;735;-68
2021/03/01 03:29:49;;;;;;;;;;;22.20;33.30;;;;;;1550019;75;703;-68
2021/03/01 03:31:51;;;;;;;;;;;22.20;33.40;;;;;;1548166;75;706;-68
2021/03/01 03:33:53;;;;;;;;;;;22.20;33.60;;;;;;1547415;75;854;-68
2021/03/01 03:35:55;;;;;;;;;;;22.10;33.60;;;;;;1549002;75;1143;-68
2021/03/01 03:38:08;;;;;;;;;;;22.20;33.80;;;;;;1549628;75;806;-68
2021/03/01 03:40:10;;;;;;;;;;;22.10;33.70;;;;;;1553176;75;1956;-69
2021/03/01 03:42:14;;;;;;;;;;;22.00;33.80;;;;;;1550884;75;812;-69
2021/03/01 03:44:16;;;;;;;;;;;22.10;33.70;;;;;;1547099;75;1092;-68
2021/03/01 03:46:18;;;;;;;;;;;22.00;33.60;;;;;;1549707;75;1151;-68
2021/03/01 03:48:19;;;;;;;;;;;22.00;33.70;;;;;;1554522;75;831;-68
2021/03/01 03:50:22;;;;;;;;;;;22.00;33.90;;;;;;1552946;75;757;-68
2021/03/01 03:52:24;;;;;;;;;;;22.10;34.20;;;;;;1546551;75;765;-67
2021/03/01 03:54:26;;;;;;;;;;;22.10;34.10;;;;;;1558089;75;808;-68
2021/03/01 03:56:29;;;;;;;;;;;22.10;34.10;;;;;;1552422;75;1128;-68
2021/03/01 03:58:31;;;;;;;;;;;22.20;34.00;;;;;;1551334;75;768;-68
2021/03/01 04:00:33;;;;;;;;;;;22.10;33.90;;;;;;1552861;75;1922;-69
2021/03/01 04:02:35;;;;;;;;;;;22.10;33.90;;;;;;1552477;75;840;-68
2021/03/01 04:04:38;;;;;;;;;;;22.20;33.90;;;;;;1543462;72;215391;-67
2021/03/01 04:06:40;;;;;;;;;;;22.20;33.90;;;;;;1584920;73;604;-67
2021/03/01 04:08:42;;;;;;;;;;;22.20;33.90;;;;;;1599249;73;722;-67
2021/03/01 04:10:44;;;;;;;;;;;22.20;33.90;;;;;;1598846;73;714;-66
2021/03/01 04:12:47;;;;;;;;;;;22.20;33.90;;;;;;1598801;73;738;-66
2021/03/01 04:14:49;;;;;;;;;;;22.20;33.90;;;;;;1598683;73;1201;-65
2021/03/01 04:16:52;;;;;;;;;;;22.30;34.20;;;;;;1599150;73;795;-65
2021/03/01 04:18:55;;;;;;;;;;;22.30;34.10;;;;;;1596085;73;1061;-67
2021/03/01 04:20:57;;;;;;;;;;;22.30;34.10;;;;;;1599096;73;1899;-65
2021/03/01 04:22:59;;;;;;;;;;;22.40;34.00;;;;;;1599250;73;727;-65
2021/03/01 04:25:01;;;;;;;;;;;22.40;33.90;;;;;;1598569;73;1173;-65
2021/03/01 04:27:03;;;;;;;;;;;22.50;34.00;;;;;;1598124;73;770;-66
2021/03/01 04:29:05;;;;;;;;;;;22.40;33.80;;;;;;1599161;73;713;-66
2021/03/01 04:31:07;;;;;;;;;;;22.50;34.10;;;;;;1598928;73;727;-65
2021/03/01 04:33:09;;;;;;;;;;;22.40;33.90;;;;;;1598959;73;781;-65
2021/03/01 04:35:13;;;;;;;;;;;22.50;34.00;;;;;;1598657;73;1125;-67
2021/03/01 04:37:15;;;;;;;;;;;22.50;33.90;;;;;;1598774;73;1018;-65
2021/03/01 04:39:16;;;;;;;;;;;22.50;33.90;;;;;;1596317;73;691;-66
2021/03/01 04:41:18;;;;;;;;;;;22.50;33.90;;;;;;1598686;73;1927;-65
2021/03/01 04:43:20;;;;;;;;;;;22.50;33.90;;;;;;1598669;73;792;-65
2021/03/01 04:45:22;;;;;;;;;;;22.60;34.00;;;;;;1598984;73;1141;-66
2021/03/01 04:47:25;;;;;;;;;;;22.60;34.00;;;;;;1598718;73;773;-66
2021/03/01 04:49:27;;;;;;;;;;;22.60;33.90;;;;;;1599247;73;744;-66
2021/03/01 04:51:29;;;;;;;;;;;22.60;34.10;;;;;;1598787;73;874;-65
2021/03/01 04:53:31;;;;;;;;;;;22.60;34.00;;;;;;1598669;73;772;-66
2021/03/01 04:55:33;;;;;;;;;;;22.50;34.20;;;;;;1598637;73;1132;-67
2021/03/01 04:57:34;;;;;;;;;;;22.60;34.20;;;;;;1595726;73;788;-66
2021/03/01 04:59:36;;;;;;;;;;;22.60;34.00;;;;;;1598585;73;786;-65
2021/03/01 05:01:38;;;;;;;;;;;22.60;34.10;;;;;;1599005;73;1977;-65
2021/03/01 05:03:40;;;;;;;;;;;22.60;34.20;;;;;;1599151;73;794;-65
2021/03/01 05:05:42;;;;;;;;;;;22.50;34.20;;;;;;1595112;73;1140;-64
2021/03/01 05:07:44;;;;;;;;;;;22.60;34.10;;;;;;1593083;73;766;-65
2021/03/01 05:09:46;;;;;;;;;;;22.60;34.10;;;;;;1599095;73;755;-65
2021/03/01 05:11:48;;;;;;;;;;;22.60;34.00;;;;;;1599242;73;709;-66
2021/03/01 05:13:49;;;;;;;;;;;22.70;34.20;;;;;;1599169;73;735;-67
2021/03/01 05:15:51;;;;;;;;;;;22.60;34.20;;;;;;1598536;73;1104;-65
2021/03/01 05:17:53;;;;;;;;;;;22.60;34.20;;;;;;1596856;73;729;-65
2021/03/01 05:19:55;;;;;;;;;;;22.60;34.10;;;;;;1598580;73;1937;-65
2021/03/01 05:21:57;;;;;;;;;;;22.60;34.30;;;;;;1599426;73;761;-66
2021/03/01 05:23:59;;;;;;;;;;;22.60;34.20;;;;;;1598237;73;792;-65
2021/03/01 05:26:02;;;;;;;;;;;22.60;34.20;;;;;;1595510;73;1168;-65
2021/03/01 05:28:04;;;;;;;;;;;22.60;34.40;;;;;;1598875;73;676;-67
2021/03/01 05:30:08;;;;;;;;;;;22.60;34.20;;;;;;1596345;73;810;-64
2021/03/01 05:32:10;;;;;;;;;;;22.60;34.30;;;;;;1598373;73;726;-66
2021/03/01 05:34:12;;;;;;;;;;;22.60;34.20;;;;;;1597468;73;780;-66
2021/03/01 05:36:14;;;;;;;;;;;22.60;34.20;;;;;;1597431;73;1133;-66
2021/03/01 05:38:16;;;;;;;;;;;22.70;34.20;;;;;;1599146;73;698;-65
2021/03/01 05:40:18;;;;;;;;;;;22.70;34.20;;;;;;1599065;73;1940;-66
2021/03/01 05:42:20;;;;;;;;;;;22.60;34.10;;;;;;1599101;73;716;-67
2021/03/01 05:44:21;;;;;;;;;;;22.70;34.30;;;;;;1598365;73;763;-68
2021/03/01 05:46:23;;;;;;;;;;;22.70;34.40;;;;;;1599355;73;1074;-63
2021/03/01 05:48:26;;;;;;;;;;;22.70;34.40;;;;;;1599617;73;747;-65
2021/03/01 05:50:28;;;;;;;;;;;22.70;34.20;;;;;;1597963;73;681;-66
2021/03/01 05:52:29;;;;;;;;;;;22.80;34.20;;;;;;1595542;73;732;-65
2021/03/01 05:54:33;;;;;;;;;;;22.80;34.20;;;;;;1599402;73;1137;-66
2021/03/01 05:56:35;;;;;;;;;;;22.80;34.20;;;;;;1597799;73;718;-66
2021/03/01 05:58:37;;;;;;;;;;;22.80;34.20;;;;;;1597781;73;724;-67
2021/03/01 06:00:38;;;;;;;;;;;22.80;34.20;;;;;;1598817;73;1935;-68
2021/03/01 06:02:41;;;;;;;;;;;22.70;34.30;;;;;;1596171;73;771;-66
2021/03/01 06:04:43;;;;;;;;;;;22.80;34.30;;;;;;1597701;73;1180;-66
2021/03/01 06:06:44;;;;;;;;;;;22.90;34.40;;;;;;1599298;73;772;-66
2021/03/01 06:08:46;;;;;;;;;;;22.80;34.40;;;;;;1599438;73;700;-66
2021/03/01 06:10:48;;;;;;;;;;;22.80;34.30;;;;;;1597340;73;787;-66
2021/03/01 06:12:50;;;;;;;;;;;22.80;34.30;;;;;;1598283;73;781;-65
2021/03/01 06:14:54;;;;;;;;;;;22.80;34.30;;;;;;1597869;73;1150;-66
2021/03/01 06:17:15;;;;;;;;;;;22.80;34.30;;;;;;1599084;73;762;-67
2021/03/01 06:19:17;;;;;;;;;;;22.90;34.40;;;;;;1596269;73;700;-67
2021/03/01 06:21:22;;;;;;;;;;;22.80;34.20;;;;;;1579287;74;1925;-70
2021/03/01 06:23:35;;;;;;;;;;;22.80;34.10;;;;;;1597881;73;1697;-67
2021/03/01 06:25:37;;;;;;;;;;;22.80;34.10;;;;;;1588025;73;1178;-66
2021/03/01 06:27:49;;;;;;;;;;;22.90;34.20;;;;;;1599051;73;720;-66
2021/03/01 06:30:10;;;;;;;;;;;22.90;34.30;;;;;;1599044;73;876;-67
2021/03/01 06:32:12;;;;;;;;;;;22.80;34.20;;;;;;1598449;73;915;-65
2021/03/01 06:34:24;;;;;;;;;;;22.90;34.20;;;;;;1598598;73;783;-65
2021/03/01 06:36:27;;;;;;;;;;;22.90;34.10;;;;;;1592172;73;1170;-63
2021/03/01 06:38:34;;;;;;;;;;;22.90;34.10;;;;;;1575985;74;1024;-67
2021/03/01 06:40:36;;;;;;;;;;;22.90;34.40;;;;;;1598622;73;1924;-66
2021/03/01 06:42:38;;;;;;;;;;;22.90;33.90;;;;;;1598503;73;748;-67
2021/03/01 06:44:40;;;;;;;;;;;22.90;33.60;;;;;;1598807;73;1144;-67
2021/03/01 06:46:42;;;;;;;;;;;22.90;33.50;;;;;;1598952;73;574;-68
2021/03/01 06:48:44;;;;;;;;;;;22.90;33.40;;;;;;1581278;74;1376;-69
2021/03/01 06:50:47;;;;;;;;;;;23.00;33.10;;;;;;1598526;73;832;-65
2021/03/01 06:52:49;;;;;;;;;;;23.00;33.00;;;;;;1590230;73;1870;-63
2021/03/01 06:54:51;;;;;;;;;;;23.00;33.30;;;;;;1597051;73;1084;-68
2021/03/01 06:56:53;;;;;;;;;;;23.00;33.50;;;;;;1598923;73;779;-67
2021/03/01 06:58:55;;;;;;;;;;;23.00;33.30;;;;;;1598955;73;755;-67
2021/03/01 07:01:00;;;;;;;;;;;23.00;33.10;;;;;;1599084;73;1942;-66
2021/03/01 07:03:02;;;;;;;;;;;23.00;33.10;;;;;;1599294;73;695;-65
2021/03/01 07:05:04;;;;;;;;;;;23.00;33.00;;;;;;1599430;73;1181;-67
2021/03/01 07:07:07;;;;;;;;;;;23.00;33.10;;;;;;1597840;73;800;-68
2021/03/01 07:09:16;;;;;;;;;;;23.00;33.10;;;;;;1597920;73;716;-68
2021/03/01 07:11:28;;;;;;;;;;;23.00;32.80;;;;;;1598819;73;804;-68
2021/03/01 07:13:30;;;;;;;;;;;23.00;32.80;;;;;;1587226;73;688;-66
2021/03/01 07:15:32;;;;;;;;;;;23.00;32.60;;;;;;1598301;73;1170;-67
2021/03/01 07:17:35;;;;;;;;;;;23.00;32.60;;;;;;1598780;73;774;-68
2021/03/01 07:19:36;;;;;;;;;;;23.00;32.50;;;;;;1593765;73;764;-68
2021/03/01 07:21:39;;;;;;;;;;;23.00;32.30;;;;;;1598619;73;1936;-68
2021/03/01 07:23:41;;;;;;;;;;;23.00;32.20;;;;;;1598721;73;720;-67
2021/03/01 07:25:46;;;;;;;;;;;23.00;32.20;;;;;;1600677;73;1181;-68
2021/03/01 07:27:47;;;;;;;;;;;23.00;32.10;;;;;;1602254;73;808;-68
2021/03/01 07:29:50;;;;;;;;;;;23.00;31.90;;;;;;1604942;73;810;-67
2021/03/01 07:31:53;;;;;;;;;;;22.90;31.90;;;;;;1598829;73;734;-68
2021/03/01 07:33:55;;;;;;;;;;;22.90;31.90;;;;;;1597647;73;1836;-67
2021/03/01 07:35:57;;;;;;;;;;;22.90;31.80;;;;;;1599220;73;1141;-68
2021/03/01 07:37:59;;;;;;;;;;;22.90;31.80;;;;;;1598892;73;795;-67
2021/03/01 07:40:01;;;;;;;;;;;22.90;31.80;;;;;;1598622;73;738;-69
2021/03/01 07:42:04;;;;;;;;;;;22.90;31.70;;;;;;1598965;73;1925;-69
2021/03/01 07:44:06;;;;;;;;;;;22.90;31.70;;;;;;1601128;73;774;-67
2021/03/01 07:46:08;;;;;;;;;;;22.90;31.70;;;;;;1598615;73;1142;-68
2021/03/01 07:48:13;;;;;;;;;;;22.90;31.60;;;;;;1600129;73;663;-69
2021/03/01 07:50:16;;;;;;;;;;;22.90;31.70;;;;;;1599409;73;799;-68
2021/03/01 07:52:20;;;;;;;;;;;22.90;31.60;;;;;;1596568;73;1664;-67
2021/03/01 07:54:22;;;;;;;;;;;22.90;31.50;;;;;;1601254;73;731;-65
2021/03/01 07:56:25;;;;;;;;;;;22.90;31.60;;;;;;1579929;74;1211;-69
2021/03/01 07:58:27;;;;;;;;;;;22.90;31.50;;;;;;1601609;73;767;-67
2021/03/01 08:00:34;;;;;;;;;;;22.90;31.50;;;;;;1603310;73;760;-67
2021/03/01 08:02:33;;;;;;;;;;;22.80;31.40;;;;;;1596475;73;1907;-67
2021/03/01 08:04:35;;;;;;;;;;;22.90;31.50;;;;;;1599195;73;1094;-67
2021/03/01 08:06:55;;;;;;;;;;;22.80;31.40;;;;;;1601131;73;747;-68
2021/03/01 08:08:57;;;;;;;;;;;22.90;31.50;;;;;;1599841;73;705;-67
2021/03/01 08:10:59;;;;;;;;;;;22.90;31.50;;;;;;1600303;73;795;-66
2021/03/01 08:13:03;;;;;;;;;;;23.00;30.00;;;;;;1598552;73;732;-65
2021/03/01 08:15:08;;;;;;;;;;;23.10;29.50;;;;;;1596680;73;1181;-65
2021/03/01 08:17:29;;;;;;;;;;;23.20;29.10;;;;;;1599061;73;2053;-66
2021/03/01 08:19:41;;;;;;;;;;;23.20;29.20;;;;;;1596182;73;798;-66
2021/03/01 08:22:01;;;;;;;;;;;23.30;28.60;;;;;;1598719;73;2067;-65
2021/03/01 08:24:03;;;;;;;;;;;23.30;28.20;;;;;;1601914;73;753;-63
2021/03/01 08:26:05;;;;;;;;;;;23.30;27.80;;;;;;1599241;73;1115;-66
2021/03/01 08:28:06;;;;;;;;;;;23.30;27.60;;;;;;1599220;73;774;-64
2021/03/01 08:30:21;;;;;;;;;;;23.40;26.80;;;;;;1599506;73;759;-66
2021/03/01 08:32:23;;;;;;;;;;;23.40;27.30;;;;;;1598966;73;784;-64
2021/03/01 08:34:29;;;;;;;;;;;23.40;26.90;;;;;;1603179;73;732;-65
2021/03/01 08:36:31;;;;;;;;;;;23.40;26.30;;;;;;1598916;73;1182;-65
2021/03/01 08:38:45;;;;;;;;;;;23.40;26.50;;;;;;1600451;73;714;-66
2021/03/01 08:40:51;;;;;;;;;;;23.40;26.10;;;;;;1596397;73;885;-64
2021/03/01 08:43:02;;;;;;;;;;;23.50;26.10;;;;;;1598761;73;1939;-65
2021/03/01 08:45:04;;;;;;;;;;;23.50;26.00;;;;;;1602366;73;1138;-65
2021/03/01 08:47:06;;;;;;;;;;;23.50;25.70;;;;;;1600608;73;755;-65
2021/03/01 08:49:08;;;;;;;;;;;23.40;25.70;;;;;;1599751;73;781;-65
2021/03/01 08:51:09;;;;;;;;;;;23.50;25.50;;;;;;1598129;73;771;-65
2021/03/01 08:53:12;;;;;;;;;;;23.40;25.90;;;;;;1609140;73;759;-65
2021/03/01 08:55:15;;;;;;;;;;;23.50;25.70;;;;;;1599443;73;1125;-65
2021/03/01 08:57:18;;;;;;;;;;;23.40;25.50;;;;;;1599669;73;669;-64
2021/03/01 08:59:23;;;;;;;;;;;23.40;25.00;;;;;;1599248;73;817;-62
2021/03/01 09:01:23;;;;;;;;;;;23.40;25.20;;;;;;1595633;73;1941;-63
2021/03/01 09:03:31;;;;;;;;;;;23.50;25.50;;;;;;1601314;73;842;-64
2021/03/01 09:05:33;;;;;;;;;;;23.40;25.20;;;;;;1599731;73;1157;-64
2021/03/01 09:07:42;;;;;;;;;;;23.40;25.30;;;;;;1599542;73;757;-64
2021/03/01 09:09:48;;;;;;;;;;;23.40;25.20;;;;;;1603866;73;806;-66
2021/03/01 09:11:50;;;;;;;;;;;23.40;25.00;;;;;;1592051;73;806;-64
2021/03/01 09:13:55;;;;;;;;;;;23.40;25.20;;;;;;1599595;73;788;-65
2021/03/01 09:15:59;;;;;;;;;;;23.40;25.40;;;;;;1594469;73;1104;-65
2021/03/01 09:18:01;;;;;;;;;;;23.40;24.60;;;;;;1599061;73;1837;-65
2021/03/01 09:20:03;;;;;;;;;;;23.30;24.90;;;;;;1598527;73;801;-65
2021/03/01 09:22:05;;;;;;;;;;;23.30;25.10;;;;;;1604753;73;1916;-65
2021/03/01 09:24:08;;;;;;;;;;;23.30;24.40;;;;;;1606916;73;798;-66
2021/03/01 09:26:20;;;;;;;;;;;23.30;24.40;;;;;;1602841;72;1145;-65
2021/03/01 09:28:23;;;;;;;;;;;23.20;24.50;;;;;;1599379;73;683;-66
2021/03/01 09:30:25;;;;;;;;;;;23.20;25.00;;;;;;1598355;73;1894;-65
2021/03/01 09:32:27;;;;;;;;;;;23.20;24.90;;;;;;1597939;73;742;-65
2021/03/01 09:34:29;;;;;;;;;;;23.20;25.00;;;;;;1602228;73;676;-65
2021/03/01 09:36:31;;;;;;;;;;;23.30;24.30;;;;;;1599196;73;816;-66
2021/03/01 09:38:33;;;;;;;;;;;23.20;24.70;;;;;;1599222;73;1061;-66
2021/03/01 09:40:35;;;;;;;;;;;23.10;24.70;;;;;;1595229;73;790;-65
2021/03/01 09:42:37;;;;;;;;;;;23.20;25.00;;;;;;1599655;73;1936;-65
2021/03/01 09:44:39;;;;;;;;;;;23.10;24.70;;;;;;1578539;74;1127;-62
2021/03/01 09:46:41;;;;;;;;;;;23.10;25.10;;;;;;1602285;73;722;-67
2021/03/01 09:48:44;;;;;;;;;;;23.10;24.60;;;;;;1600197;73;789;-67
2021/03/01 09:50:46;;;;;;;;;;;23.10;24.60;;;;;;1599471;73;762;-65
2021/03/01 09:52:48;;;;;;;;;;;23.10;24.20;;;;;;1599194;73;776;-67
2021/03/01 09:54:50;;;;;;;;;;;23.10;24.30;;;;;;1603134;73;1107;-64
2021/03/01 09:56:55;;;;;;;;;;;23.10;24.20;;;;;;1601613;73;736;-65
2021/03/01 09:58:57;;;;;;;;;;;23.00;23.70;;;;;;1601915;73;684;-66
2021/03/01 10:01:06;;;;;;;;;;;23.00;24.70;;;;;;1599471;73;790;-68
2021/03/01 10:03:08;;;;;;;;;;;22.90;24.00;;;;;;1599175;73;1921;-65
2021/03/01 10:05:12;;;;;;;;;;;22.90;24.60;;;;;;1596923;71;215843;-65
2021/03/01 10:07:18;;;;;;;;;;;22.90;24.10;;;;;;1602678;73;688;-65
2021/03/01 10:09:20;;;;;;;;;;;22.90;24.30;;;;;;1603026;72;637;-68
2021/03/01 10:11:22;;;;;;;;;;;22.90;24.60;;;;;;1606621;72;796;-65
2021/03/01 10:13:25;;;;;;;;;;;22.90;25.10;;;;;;1602102;72;727;-68
2021/03/01 10:15:27;;;;;;;;;;;22.80;24.20;;;;;;1592849;72;1202;-66
2021/03/01 10:17:31;;;;;;;;;;;22.90;24.20;;;;;;1592579;74;706;-67
2021/03/01 10:19:34;;;;;;;;;;;22.80;24.30;;;;;;1579664;74;1470;-66
2021/03/01 10:21:36;;;;;;;;;;;22.80;24.40;;;;;;1585889;74;2237;-64
2021/03/01 10:23:39;;;;;;;;;;;22.80;23.90;;;;;;1572308;74;734;-65
2021/03/01 10:25:42;;;;;;;;;;;22.70;24.00;;;;;;1577439;74;1150;-66
2021/03/01 10:27:43;;;;;;;;;;;22.70;24.10;;;;;;1578990;74;770;-66
2021/03/01 10:29:49;;;;;;;;;;;22.60;24.30;;;;;;1575283;74;746;-66
2021/03/01 10:31:51;;;;;;;;;;;22.60;24.10;;;;;;1579010;74;772;-72
2021/03/01 10:33:54;;;;;;;;;;;22.60;24.20;;;;;;1580658;74;729;-66
2021/03/01 10:36:09;;;;;;;;;;;22.50;24.30;;;;;;1582923;74;1126;-66
2021/03/01 10:38:11;;;;;;;;;;;22.60;24.20;;;;;;1582881;74;674;-65
2021/03/01 10:40:14;;;;;;;;;;;22.60;23.70;;;;;;1575027;74;711;-65
2021/03/01 10:42:16;;;;;;;;;;;22.50;23.90;;;;;;1582669;74;1966;-66
2021/03/01 10:44:18;;;;;;;;;;;22.50;23.60;;;;;;1582775;74;780;-67
2021/03/01 10:46:38;;;;;;;;;;;22.40;24.20;;;;;;1570860;74;1112;-67
2021/03/01 10:48:45;;;;;;;;;;;22.40;24.20;;;;;;1575403;74;759;-67
2021/03/01 10:50:46;;;;;;;;;;;22.40;24.20;;;;;;1584200;74;787;-65
2021/03/01 10:52:49;;;;;;;;;;;22.40;24.10;;;;;;1581082;74;700;-65
2021/03/01 10:54:54;;;;;;;;;;;22.30;23.90;;;;;;1582692;74;942;-66
2021/03/01 10:56:56;;;;;;;;;;;22.40;23.80;;;;;;1580050;74;631;-64
2021/03/01 10:58:57;;;;;;;;;;;22.40;23.80;;;;;;1577380;74;790;-65
2021/03/01 11:00:59;;;;;;;;;;;22.30;23.80;;;;;;1574034;74;740;-64
2021/03/01 11:03:01;;;;;;;;;;;22.30;23.80;;;;;;1578083;74;1934;-66
2021/03/01 11:05:03;;;;;;;;;;;22.20;24.00;;;;;;1579331;74;1161;-63
2021/03/01 11:07:05;;;;;;;;;;;22.20;23.80;;;;;;1587077;74;807;-65
2021/03/01 11:09:08;;;;;;;;;;;22.30;23.60;;;;;;1581773;74;697;-64
2021/03/01 11:11:12;;;;;;;;;;;22.20;23.60;;;;;;1580140;74;689;-65
2021/03/01 11:13:14;;;;;;;;;;;22.20;23.70;;;;;;1585405;74;732;-68
2021/03/01 11:15:16;;;;;;;;;;;22.20;24.00;;;;;;1582299;74;1209;-67
2021/03/01 11:17:18;;;;;;;;;;;22.10;23.70;;;;;;1581142;74;848;-67
2021/03/01 11:19:20;;;;;;;;;;;22.10;23.70;;;;;;1578818;74;809;-63
2021/03/01 11:21:22;;;;;;;;;;;22.00;23.60;;;;;;1581157;74;781;-63
2021/03/01 11:23:24;;;;;;;;;;;22.00;23.60;;;;;;1583473;74;1949;-66
2021/03/01 11:25:26;;;;;;;;;;;22.00;23.40;;;;;;1579743;74;1110;-63
2021/03/01 11:27:27;;;;;;;;;;;21.90;23.50;;;;;;1579535;74;727;-64
2021/03/01 11:29:29;;;;;;;;;;;22.00;23.60;;;;;;1578260;74;781;-64
2021/03/01 11:31:34;;;;;;;;;;;22.00;23.50;;;;;;1576970;74;821;-65
2021/03/01 11:33:36;;;;;;;;;;;21.90;23.20;;;;;;1580985;74;788;-69
2021/03/01 11:35:38;;;;;;;;;;;22.00;23.30;;;;;;1582196;74;1146;-65
2021/03/01 11:37:40;;;;;;;;;;;21.80;23.30;;;;;;1581839;74;779;-65
2021/03/01 11:39:42;;;;;;;;;;;21.90;23.20;;;;;;1576239;74;713;-68
2021/03/01 11:41:43;;;;;;;;;;;21.80;23.10;;;;;;1577309;74;814;-67
2021/03/01 11:43:45;;;;;;;;;;;21.80;23.20;;;;;;1585439;74;1932;-65
2021/03/01 11:45:47;;;;;;;;;;;21.70;23.80;;;;;;1575748;74;1394;-65
2021/03/01 11:47:49;;;;;;;;;;;21.60;23.40;;;;;;1584420;74;780;-65
2021/03/01 11:49:51;;;;;;;;;;;21.60;23.30;;;;;;1589831;74;762;-65
2021/03/01 11:51:53;;;;;;;;;;;21.60;23.20;;;;;;1581555;74;799;-65
2021/03/01 11:53:55;;;;;;;;;;;21.70;23.60;;;;;;1587912;74;711;-66
2021/03/01 11:55:57;;;;;;;;;;;21.60;23.50;;;;;;1579057;74;1140;-67
2021/03/01 11:57:58;;;;;;;;;;;21.60;23.60;;;;;;1574420;74;731;-65
2021/03/01 12:00:00;;;;;;;;;;;21.60;23.50;;;;;;1569474;74;816;-66
2021/03/01 12:02:02;;;;;;;;;;;21.50;23.40;;;;;;1571759;74;821;-67
2021/03/01 12:04:04;;;;;;;;;;;21.20;23.70;;;;;;1566957;74;1938;-64
2021/03/01 12:06:06;;;;;;;;;;;21.10;24.00;;;;;;1585601;74;1175;-69
2021/03/01 12:08:09;;;;;;;;;;;21.20;24.20;;;;;;1579923;74;788;-66
2021/03/01 12:10:11;;;;;;;;;;;21.30;24.20;;;;;;1583300;74;732;-65
2021/03/01 12:12:13;;;;;;;;;;;21.30;24.20;;;;;;1594354;74;713;-68
2021/03/01 12:14:15;;;;;;;;;;;21.40;24.00;;;;;;1578743;74;808;-65